createdAt,value
2019-06-07T00:00:53.552Z,935.23
2019-06-07T00:01:53.526Z,935.24
2019-06-07T00:02:53.456Z,935.23
2019-06-07T00:03:53.430Z,935.20
2019-06-07T00:04:53.375Z,935.22
2019-06-07T00:05:53.325Z,935.19
2019-06-07T00:06:53.289Z,935.18
2019-06-07T00:07:53.234Z,935.21
2019-06-07T00:08:53.191Z,935.26
2019-06-07T00:09:53.118Z,935.25
2019-06-07T00:10:53.082Z,935.22
2019-06-07T00:11:53.028Z,935.23
2019-06-07T00:12:52.999Z,935.24
2019-06-07T00:13:52.949Z,935.24
2019-06-07T00:14:52.875Z,935.19
2019-06-07T00:15:52.828Z,935.20
2019-06-07T00:16:52.789Z,935.20
2019-06-07T00:17:52.731Z,935.18
2019-06-07T00:18:52.681Z,935.19
2019-06-07T00:19:52.659Z,935.19
2019-06-07T00:20:52.585Z,935.21
2019-06-07T00:22:15.602Z,935.21
2019-06-07T00:22:52.516Z,935.16
2019-06-07T00:23:52.452Z,935.18
2019-06-07T00:24:52.391Z,935.19
2019-06-07T00:25:52.352Z,935.21
2019-06-07T00:26:59.018Z,935.23
2019-06-07T00:27:52.255Z,935.19
2019-06-07T00:28:52.208Z,935.25
2019-06-07T00:29:52.169Z,935.26
2019-06-07T00:30:52.807Z,935.26
2019-06-07T00:31:52.063Z,935.27
2019-06-07T00:32:52.017Z,935.24
2019-06-07T00:33:51.964Z,935.23
2019-06-07T00:34:51.920Z,935.22
2019-06-07T00:35:51.913Z,935.26
2019-06-07T00:36:51.808Z,935.27
2019-06-07T00:37:51.770Z,935.25
2019-06-07T00:38:51.709Z,935.30
2019-06-07T00:40:12.669Z,935.23
2019-06-07T00:40:51.627Z,935.23
2019-06-07T00:41:51.564Z,935.23
2019-06-07T00:42:51.528Z,935.22
2019-06-07T00:43:51.480Z,935.26
2019-06-07T00:44:51.443Z,935.18
2019-06-07T00:45:51.418Z,935.19
2019-06-07T00:46:51.332Z,935.20
2019-06-07T00:47:51.282Z,935.24
2019-06-07T00:48:51.248Z,935.27
2019-06-07T00:49:51.200Z,935.23
2019-06-07T00:50:51.125Z,935.25
2019-06-07T00:51:52.010Z,935.27
2019-06-07T00:53:50.979Z,935.26
2019-06-07T00:54:50.956Z,935.29
2019-06-07T00:55:50.896Z,935.26
2019-06-07T00:56:50.845Z,935.28
2019-06-07T00:57:50.787Z,935.25
2019-06-07T00:59:10.331Z,935.25
2019-06-07T00:59:50.713Z,935.29
2019-06-07T01:00:50.682Z,935.25
2019-06-07T01:01:50.604Z,935.21
2019-06-07T01:02:50.540Z,935.24
2019-06-07T01:03:50.506Z,935.24
2019-06-07T01:04:50.507Z,935.28
2019-06-07T01:05:50.410Z,935.25
2019-06-07T01:06:50.357Z,935.25
2019-06-07T01:07:50.297Z,935.25
2019-06-07T01:08:50.274Z,935.26
2019-06-07T01:09:50.216Z,935.27
2019-06-07T01:10:54.303Z,935.31
2019-06-07T01:11:50.102Z,935.32
2019-06-07T01:12:50.056Z,935.29
2019-06-07T01:13:50.019Z,935.29
2019-06-07T01:14:49.964Z,935.27
2019-06-07T01:15:49.919Z,935.23
2019-06-07T01:16:57.508Z,935.28
2019-06-07T01:18:33.162Z,935.22
2019-06-07T01:18:51.392Z,935.25
2019-06-07T01:19:49.720Z,935.25
2019-06-07T01:20:49.714Z,935.25
2019-06-07T01:21:49.629Z,935.24
2019-06-07T01:22:49.575Z,935.26
2019-06-07T01:24:11.949Z,935.23
2019-06-07T01:24:49.482Z,935.27
2019-06-07T01:25:49.434Z,935.26
2019-06-07T01:26:49.393Z,935.18
2019-06-07T01:27:49.335Z,935.19
2019-06-07T01:28:49.348Z,935.20
2019-06-07T01:29:49.226Z,935.19
2019-06-07T01:30:49.190Z,935.16
2019-06-07T01:31:49.155Z,935.18
2019-06-07T01:32:49.090Z,935.16
2019-06-07T01:33:51.249Z,935.12
2019-06-07T01:34:49.004Z,935.20
2019-06-07T01:35:48.946Z,935.17
2019-06-07T01:36:48.910Z,935.18
2019-06-07T01:37:48.848Z,935.18
2019-06-07T01:38:48.808Z,935.13
2019-06-07T01:39:48.751Z,935.14
2019-06-07T01:40:48.689Z,935.11
2019-06-07T01:41:48.648Z,935.12
2019-06-07T01:42:48.603Z,935.10
2019-06-07T01:43:48.542Z,935.10
2019-06-07T01:44:48.507Z,935.11
2019-06-07T01:45:48.453Z,935.11
2019-06-07T01:46:48.410Z,935.14
2019-06-07T01:47:48.347Z,935.12
2019-06-07T01:48:49.795Z,935.15
2019-06-07T01:49:48.275Z,935.11
2019-06-07T01:50:48.226Z,935.10
2019-06-07T01:51:48.197Z,935.10
2019-06-07T01:52:48.117Z,935.11
2019-06-07T01:53:48.070Z,935.11
2019-06-07T01:54:57.340Z,935.08
2019-06-07T01:55:47.957Z,935.07
2019-06-07T01:56:47.934Z,935.10
2019-06-07T01:57:48.743Z,935.02
2019-06-07T01:58:47.822Z,935.05
2019-06-07T01:59:47.787Z,935.05
2019-06-07T02:00:47.725Z,935.06
2019-06-07T02:01:47.677Z,935.05
2019-06-07T02:02:47.617Z,935.05
2019-06-07T02:03:47.593Z,935.10
2019-06-07T02:04:48.189Z,935.04
2019-06-07T02:05:47.469Z,935.05
2019-06-07T02:06:47.445Z,935.04
2019-06-07T02:07:47.393Z,935.06
2019-06-07T02:08:47.344Z,934.99
2019-06-07T02:09:47.322Z,935.04
2019-06-07T02:10:47.256Z,935.05
2019-06-07T02:11:47.188Z,935.11
2019-06-07T02:12:47.135Z,935.09
2019-06-07T02:13:47.078Z,935.07
2019-06-07T02:14:47.029Z,935.06
2019-06-07T02:15:47.007Z,935.12
2019-06-07T02:16:46.931Z,935.07
2019-06-07T02:17:46.926Z,934.96
2019-06-07T02:19:01.324Z,935.01
2019-06-07T02:19:46.785Z,935.02
2019-06-07T02:20:46.736Z,934.97
2019-06-07T02:21:46.688Z,935.01
2019-06-07T02:22:46.639Z,934.98
2019-06-07T02:23:46.605Z,935.02
2019-06-07T02:24:46.563Z,934.96
2019-06-07T02:25:50.542Z,934.95
2019-06-07T02:26:46.453Z,934.97
2019-06-07T02:27:46.405Z,934.96
2019-06-07T02:28:46.363Z,934.96
2019-06-07T02:29:46.320Z,934.98
2019-06-07T02:30:59.015Z,934.93
2019-06-07T02:31:46.225Z,934.96
2019-06-07T02:32:46.161Z,934.96
2019-06-07T02:33:46.116Z,934.94
2019-06-07T02:34:46.064Z,934.94
2019-06-07T02:35:46.012Z,934.95
2019-06-07T02:36:45.969Z,934.90
2019-06-07T02:37:45.939Z,934.92
2019-06-07T02:38:45.878Z,934.90
2019-06-07T02:39:45.817Z,934.92
2019-06-07T02:40:45.763Z,934.91
2019-06-07T02:41:45.735Z,934.89
2019-06-07T02:42:45.693Z,934.87
2019-06-07T02:43:45.624Z,934.89
2019-06-07T02:44:45.589Z,934.88
2019-06-07T02:45:45.516Z,934.85
2019-06-07T02:46:49.383Z,934.90
2019-06-07T02:47:45.447Z,934.88
2019-06-07T02:48:45.414Z,934.88
2019-06-07T02:49:45.348Z,934.85
2019-06-07T02:50:45.290Z,934.80
2019-06-07T02:51:45.234Z,934.83
2019-06-07T02:52:45.185Z,934.81
2019-06-07T02:53:45.147Z,934.82
2019-06-07T02:54:45.090Z,934.81
2019-06-07T02:56:33.806Z,934.80
2019-06-07T02:56:57.394Z,934.85
2019-06-07T02:57:44.948Z,934.83
2019-06-07T02:58:44.911Z,934.85
2019-06-07T03:00:05.251Z,934.84
2019-06-07T03:01:04.163Z,934.81
2019-06-07T03:01:44.741Z,934.86
2019-06-07T03:02:44.746Z,934.78
2019-06-07T03:03:44.646Z,934.82
2019-06-07T03:04:45.107Z,934.83
2019-06-07T03:05:44.558Z,934.83
2019-06-07T03:06:44.511Z,934.82
2019-06-07T03:07:45.458Z,934.80
2019-06-07T03:08:44.386Z,934.81
2019-06-07T03:09:44.337Z,934.82
2019-06-07T03:10:44.311Z,934.86
2019-06-07T03:11:44.248Z,934.81
2019-06-07T03:12:44.216Z,934.82
2019-06-07T03:13:44.153Z,934.79
2019-06-07T03:14:44.110Z,934.82
2019-06-07T03:15:50.043Z,934.79
2019-06-07T03:16:44.009Z,934.75
2019-06-07T03:17:43.972Z,934.75
2019-06-07T03:18:43.899Z,934.72
2019-06-07T03:19:43.869Z,934.74
2019-06-07T03:20:43.824Z,934.74
2019-06-07T03:21:43.749Z,934.73
2019-06-07T03:22:43.735Z,934.68
2019-06-07T03:23:43.716Z,934.76
2019-06-07T03:24:44.181Z,934.69
2019-06-07T03:25:43.567Z,934.69
2019-06-07T03:27:32.250Z,934.71
2019-06-07T03:27:49.461Z,934.72
2019-06-07T03:28:43.422Z,934.72
2019-06-07T03:29:43.358Z,934.73
2019-06-07T03:31:00.639Z,934.74
2019-06-07T03:31:47.511Z,934.77
2019-06-07T03:32:47.736Z,934.77
2019-06-07T03:33:45.532Z,934.76
2019-06-07T03:34:43.915Z,934.78
2019-06-07T03:35:43.078Z,934.75
2019-06-07T03:36:42.964Z,934.70
2019-06-07T03:37:43.202Z,934.70
2019-06-07T03:38:42.930Z,934.72
2019-06-07T03:39:42.868Z,934.76
2019-06-07T03:40:42.861Z,934.71
2019-06-07T03:42:04.778Z,934.72
2019-06-07T03:42:42.732Z,934.69
2019-06-07T03:43:42.724Z,934.72
2019-06-07T03:44:42.622Z,934.67
2019-06-07T03:45:42.800Z,934.71
2019-06-07T03:46:42.540Z,934.71
2019-06-07T03:47:43.310Z,934.69
2019-06-07T03:48:42.441Z,934.68
2019-06-07T03:49:42.883Z,934.66
2019-06-07T03:50:42.645Z,934.65
2019-06-07T03:51:42.279Z,934.66
2019-06-07T03:52:42.264Z,934.64
2019-06-07T03:53:42.201Z,934.60
2019-06-07T03:54:42.132Z,934.60
2019-06-07T03:55:42.136Z,934.63
2019-06-07T03:56:42.056Z,934.69
2019-06-07T03:58:49.814Z,934.69
2019-06-07T03:59:41.913Z,934.73
2019-06-07T04:00:43.145Z,934.68
2019-06-07T04:01:41.803Z,934.65
2019-06-07T04:02:42.336Z,934.63
2019-06-07T04:03:50.696Z,934.64
2019-06-07T04:04:41.642Z,934.64
2019-06-07T04:05:43.595Z,934.63
2019-06-07T04:06:42.763Z,934.62
2019-06-07T04:07:44.415Z,934.59
2019-06-07T04:08:42.296Z,934.63
2019-06-07T04:09:43.013Z,934.61
2019-06-07T04:10:58.625Z,934.57
2019-06-07T04:11:41.321Z,934.57
2019-06-07T04:12:44.019Z,934.58
2019-06-07T04:13:42.779Z,934.54
2019-06-07T04:14:42.797Z,934.54
2019-06-07T04:15:41.506Z,934.54
2019-06-07T04:16:44.569Z,934.56
2019-06-07T04:17:59.516Z,934.59
2019-06-07T04:18:42.425Z,934.54
2019-06-07T04:19:43.319Z,934.53
2019-06-07T04:20:41.600Z,934.54
2019-06-07T04:21:42.982Z,934.56
2019-06-07T04:22:42.811Z,934.53
2019-06-07T04:23:45.578Z,934.49
2019-06-07T04:24:42.071Z,934.48
2019-06-07T04:25:42.627Z,934.51
2019-06-07T04:26:44.006Z,934.52
2019-06-07T04:27:41.194Z,934.46
2019-06-07T04:29:30.783Z,934.49
2019-06-07T04:30:02.943Z,934.50
2019-06-07T04:30:42.021Z,934.50
2019-06-07T04:31:42.850Z,934.50
2019-06-07T04:32:44.676Z,934.55
2019-06-07T04:33:43.631Z,934.46
2019-06-07T04:34:43.022Z,934.49
2019-06-07T04:35:43.135Z,934.49
2019-06-07T04:36:55.082Z,934.48
2019-06-07T04:37:41.472Z,934.40
2019-06-07T04:38:42.413Z,934.42
2019-06-07T04:39:44.710Z,934.43
2019-06-07T04:40:42.548Z,934.40
2019-06-07T04:41:40.927Z,934.41
2019-06-07T04:42:44.759Z,934.41
2019-06-07T04:43:41.149Z,934.40
2019-06-07T04:44:42.597Z,934.35
2019-06-07T04:45:49.754Z,934.34
2019-06-07T04:46:42.606Z,934.32
2019-06-07T04:47:42.385Z,934.34
2019-06-07T04:48:43.265Z,934.35
2019-06-07T04:49:43.462Z,934.38
2019-06-07T04:50:43.505Z,934.32
2019-06-07T04:51:42.090Z,934.35
2019-06-07T04:52:42.731Z,934.35
2019-06-07T04:53:43.063Z,934.32
2019-06-07T04:54:45.607Z,934.33
2019-06-07T04:55:41.384Z,934.33
2019-06-07T04:56:43.745Z,934.29
2019-06-07T04:57:40.398Z,934.33
2019-06-07T04:58:41.144Z,934.24
2019-06-07T05:00:11.218Z,934.26
2019-06-07T05:00:52.421Z,934.26
2019-06-07T05:01:41.432Z,934.20
2019-06-07T05:02:42.742Z,934.23
2019-06-07T05:03:43.809Z,934.24
2019-06-07T05:04:39.828Z,934.21
2019-06-07T05:05:43.143Z,934.21
2019-06-07T05:06:40.314Z,934.15
2019-06-07T05:07:43.140Z,934.16
2019-06-07T05:08:43.360Z,934.16
2019-06-07T05:09:42.550Z,934.18
2019-06-07T05:10:41.169Z,934.16
2019-06-07T05:11:39.333Z,934.20
2019-06-07T05:12:41.589Z,934.22
2019-06-07T05:13:40.426Z,934.20
2019-06-07T05:14:39.896Z,934.27
2019-06-07T05:15:39.992Z,934.26
2019-06-07T05:16:40.772Z,934.25
2019-06-07T05:17:42.647Z,934.22
2019-06-07T05:18:41.612Z,934.25
2019-06-07T05:19:39.164Z,934.19
2019-06-07T05:20:40.621Z,934.22
2019-06-07T05:21:57.151Z,934.19
2019-06-07T05:22:42.078Z,934.19
2019-06-07T05:24:40.392Z,934.18
2019-06-07T05:25:39.295Z,934.17
2019-06-07T05:26:40.192Z,934.17
2019-06-07T05:27:39.326Z,934.13
2019-06-07T05:28:40.929Z,934.15
2019-06-07T05:29:39.193Z,934.19
2019-06-07T05:31:07.825Z,934.15
2019-06-07T05:31:39.686Z,934.18
2019-06-07T05:32:41.960Z,934.12
2019-06-07T05:33:38.944Z,934.17
2019-06-07T05:34:41.922Z,934.11
2019-06-07T05:35:40.965Z,934.08
2019-06-07T05:36:39.817Z,934.13
2019-06-07T05:37:38.220Z,934.11
2019-06-07T05:38:41.178Z,934.14
2019-06-07T05:39:40.425Z,934.10
2019-06-07T05:40:39.421Z,934.11
2019-06-07T05:41:39.325Z,934.07
2019-06-07T05:42:40.352Z,934.13
2019-06-07T05:43:41.032Z,934.11
2019-06-07T05:44:39.100Z,934.10
2019-06-07T05:45:39.291Z,934.13
2019-06-07T05:46:39.564Z,934.14
2019-06-07T05:47:40.952Z,934.14
2019-06-07T05:48:36.726Z,934.12
2019-06-07T05:49:40.655Z,934.15
2019-06-07T05:50:44.875Z,934.12
2019-06-07T05:51:38.063Z,934.09
2019-06-07T05:52:39.964Z,934.10
2019-06-07T05:53:39.984Z,934.12
2019-06-07T05:54:37.518Z,934.11
2019-06-07T05:55:37.941Z,934.12
2019-06-07T05:56:39.048Z,934.10
2019-06-07T05:57:40.111Z,934.10
2019-06-07T05:58:37.640Z,934.11
2019-06-07T05:59:39.184Z,934.11
2019-06-07T06:00:36.857Z,934.11
2019-06-07T06:01:54.502Z,934.12
2019-06-07T06:02:56.765Z,934.13
2019-06-07T06:03:36.587Z,934.13
2019-06-07T06:04:36.076Z,934.15
2019-06-07T06:05:41.607Z,934.10
2019-06-07T06:06:36.376Z,934.13
2019-06-07T06:07:38.852Z,934.09
2019-06-07T06:08:36.626Z,934.12
2019-06-07T06:09:36.472Z,934.13
2019-06-07T06:10:39.087Z,934.10
2019-06-07T06:11:49.405Z,934.09
2019-06-07T06:12:39.091Z,934.10
2019-06-07T06:13:38.271Z,934.09
2019-06-07T06:14:39.600Z,934.09
2019-06-07T06:15:45.269Z,934.05
2019-06-07T06:16:35.162Z,934.08
2019-06-07T06:17:40.275Z,934.07
2019-06-07T06:18:35.644Z,934.06
2019-06-07T06:19:36.835Z,934.05
2019-06-07T06:21:00.809Z,934.04
2019-06-07T06:21:36.103Z,934.08
2019-06-07T06:22:37.110Z,934.05
2019-06-07T06:23:34.823Z,934.01
2019-06-07T06:24:34.785Z,933.99
2019-06-07T06:25:34.926Z,934.04
2019-06-07T06:26:36.952Z,934.00
2019-06-07T06:28:36.919Z,933.98
2019-06-07T06:29:38.020Z,934.02
2019-06-07T06:30:34.479Z,933.98
2019-06-07T06:31:34.439Z,933.97
2019-06-07T06:32:49.364Z,934.00
2019-06-07T06:33:35.046Z,933.99
2019-06-07T06:34:34.303Z,933.98
2019-06-07T06:35:34.240Z,933.99
2019-06-07T06:36:34.193Z,933.98
2019-06-07T06:37:34.142Z,934.02
2019-06-07T06:38:34.097Z,933.99
2019-06-07T06:39:34.043Z,933.93
2019-06-07T06:40:33.994Z,933.98
2019-06-07T06:41:46.121Z,933.94
2019-06-07T06:42:33.896Z,933.96
2019-06-07T06:43:33.835Z,933.95
2019-06-07T06:44:33.812Z,933.96
2019-06-07T06:45:33.762Z,933.94
2019-06-07T06:46:41.130Z,933.94
2019-06-07T06:47:33.647Z,933.96
2019-06-07T06:48:33.603Z,933.94
2019-06-07T06:49:33.566Z,933.93
2019-06-07T06:50:33.503Z,933.94
2019-06-07T06:51:33.442Z,933.94
2019-06-07T06:52:33.418Z,933.91
2019-06-07T06:53:33.357Z,933.92
2019-06-07T06:54:40.859Z,933.93
2019-06-07T06:55:33.270Z,933.88
2019-06-07T06:56:33.208Z,933.91
2019-06-07T06:57:33.158Z,933.88
2019-06-07T06:59:18.824Z,933.88
2019-06-07T06:59:39.218Z,933.90
2019-06-07T07:00:43.583Z,933.88
2019-06-07T07:01:32.963Z,933.91
2019-06-07T07:02:32.900Z,933.90
2019-06-07T07:04:06.823Z,933.88
2019-06-07T07:04:32.816Z,933.88
2019-06-07T07:05:32.768Z,933.86
2019-06-07T07:06:32.727Z,933.89
2019-06-07T07:07:32.654Z,933.93
2019-06-07T07:08:32.613Z,933.90
2019-06-07T07:09:32.571Z,933.86
2019-06-07T07:10:32.520Z,933.90
2019-06-07T07:11:32.479Z,933.84
2019-06-07T07:12:32.433Z,933.82
2019-06-07T07:13:32.372Z,933.84
2019-06-07T07:14:32.322Z,933.89
2019-06-07T07:15:32.286Z,933.83
2019-06-07T07:16:32.236Z,933.84
2019-06-07T07:17:50.495Z,933.88
2019-06-07T07:18:32.111Z,933.81
2019-06-07T07:19:32.072Z,933.82
2019-06-07T07:20:32.039Z,933.80
2019-06-07T07:21:31.990Z,933.78
2019-06-07T07:22:31.929Z,933.76
2019-06-07T07:23:31.878Z,933.78
2019-06-07T07:24:31.816Z,933.77
2019-06-07T07:25:31.782Z,933.76
2019-06-07T07:26:31.730Z,933.79
2019-06-07T07:27:31.670Z,933.76
2019-06-07T07:28:31.633Z,933.78
2019-06-07T07:29:31.583Z,933.78
2019-06-07T07:30:36.520Z,933.78
2019-06-07T07:31:31.471Z,933.82
2019-06-07T07:32:31.443Z,933.77
2019-06-07T07:34:20.708Z,933.83
2019-06-07T07:34:36.609Z,933.82
2019-06-07T07:35:31.287Z,933.82
2019-06-07T07:36:39.364Z,933.84
2019-06-07T07:37:31.201Z,933.85
2019-06-07T07:38:31.130Z,933.83
2019-06-07T07:39:31.080Z,933.87
2019-06-07T07:41:30.978Z,933.89
2019-06-07T07:42:30.940Z,933.89
2019-06-07T07:43:31.126Z,933.88
2019-06-07T07:44:30.855Z,933.87
2019-06-07T07:45:30.811Z,933.81
2019-06-07T07:46:30.731Z,933.86
2019-06-07T07:47:30.726Z,933.84
2019-06-07T07:48:30.648Z,933.82
2019-06-07T07:49:30.608Z,933.84
2019-06-07T07:50:30.545Z,933.88
2019-06-07T07:51:30.503Z,933.85
2019-06-07T07:52:30.456Z,933.85
2019-06-07T07:53:47.788Z,933.86
2019-06-07T07:54:30.360Z,933.93
2019-06-07T07:55:30.327Z,933.91
2019-06-07T07:56:30.244Z,933.90
2019-06-07T07:57:30.199Z,933.89
2019-06-07T07:58:30.151Z,933.89
2019-06-07T07:59:41.779Z,933.84
2019-06-07T08:00:52.294Z,933.87
2019-06-07T08:01:29.989Z,933.82
2019-06-07T08:02:29.953Z,933.85
2019-06-07T08:03:29.904Z,933.80
2019-06-07T08:05:12.873Z,933.87
2019-06-07T08:05:42.389Z,933.89
2019-06-07T08:06:29.754Z,933.86
2019-06-07T08:07:30.481Z,933.89
2019-06-07T08:08:29.653Z,933.90
2019-06-07T08:09:29.596Z,933.92
2019-06-07T08:10:29.558Z,933.93
2019-06-07T08:11:29.519Z,933.90
2019-06-07T08:12:29.444Z,933.93
2019-06-07T08:13:29.410Z,933.94
2019-06-07T08:14:29.359Z,933.91
2019-06-07T08:15:29.306Z,933.89
2019-06-07T08:16:29.247Z,933.92
2019-06-07T08:17:29.213Z,933.97
2019-06-07T08:18:29.156Z,933.93
2019-06-07T08:19:29.097Z,933.89
2019-06-07T08:20:29.048Z,933.88
2019-06-07T08:21:29.023Z,933.91
2019-06-07T08:22:28.974Z,933.92
2019-06-07T08:23:28.913Z,933.92
2019-06-07T08:24:28.859Z,933.95
2019-06-07T08:25:28.869Z,933.92
2019-06-07T08:26:28.758Z,933.96
2019-06-07T08:27:28.711Z,933.95
2019-06-07T08:28:28.650Z,933.97
2019-06-07T08:29:44.307Z,933.93
2019-06-07T08:30:50.169Z,933.96
2019-06-07T08:31:28.515Z,933.94
2019-06-07T08:32:28.478Z,933.95
2019-06-07T08:33:28.424Z,933.95
2019-06-07T08:34:28.409Z,933.94
2019-06-07T08:36:03.569Z,933.95
2019-06-07T08:36:41.365Z,933.94
2019-06-07T08:38:13.198Z,933.96
2019-06-07T08:38:46.626Z,933.94
2019-06-07T08:39:28.138Z,933.97
2019-06-07T08:40:28.061Z,933.95
2019-06-07T08:41:28.014Z,933.95
2019-06-07T08:42:36.825Z,933.95
2019-06-07T08:43:27.934Z,933.95
2019-06-07T08:44:27.885Z,934.00
2019-06-07T08:45:27.857Z,934.01
2019-06-07T08:46:27.784Z,934.01
2019-06-07T08:47:27.708Z,934.01
2019-06-07T08:48:30.141Z,934.05
2019-06-07T08:49:27.607Z,934.03
2019-06-07T08:50:27.579Z,934.03
2019-06-07T08:51:27.513Z,934.06
2019-06-07T08:52:27.458Z,934.10
2019-06-07T08:53:27.421Z,934.12
2019-06-07T08:54:27.401Z,934.07
2019-06-07T08:55:27.318Z,934.03
2019-06-07T08:56:27.268Z,934.07
2019-06-07T08:57:27.220Z,934.10
2019-06-07T08:58:27.174Z,934.14
2019-06-07T08:59:27.140Z,934.11
2019-06-07T09:00:45.217Z,934.14
2019-06-07T09:01:27.061Z,934.15
2019-06-07T09:02:26.961Z,934.09
2019-06-07T09:03:26.912Z,934.12
2019-06-07T09:04:26.876Z,934.12
2019-06-07T09:05:26.824Z,934.14
2019-06-07T09:07:01.895Z,934.13
2019-06-07T09:07:26.713Z,934.10
2019-06-07T09:08:30.521Z,934.15
2019-06-07T09:09:26.636Z,934.15
2019-06-07T09:10:26.577Z,934.14
2019-06-07T09:11:26.539Z,934.16
2019-06-07T09:12:26.486Z,934.19
2019-06-07T09:13:26.557Z,934.19
2019-06-07T09:14:26.387Z,934.19
2019-06-07T09:15:26.337Z,934.22
2019-06-07T09:16:26.276Z,934.26
2019-06-07T09:17:26.216Z,934.24
2019-06-07T09:18:44.194Z,934.26
2019-06-07T09:19:26.115Z,934.26
2019-06-07T09:20:36.550Z,934.27
2019-06-07T09:21:26.030Z,934.32
2019-06-07T09:22:25.984Z,934.29
2019-06-07T09:23:25.917Z,934.28
2019-06-07T09:24:25.871Z,934.32
2019-06-07T09:25:25.830Z,934.37
2019-06-07T09:26:25.782Z,934.30
2019-06-07T09:27:25.720Z,934.35
2019-06-07T09:28:25.668Z,934.37
2019-06-07T09:29:25.633Z,934.35
2019-06-07T09:30:25.583Z,934.40
2019-06-07T09:31:25.540Z,934.41
2019-06-07T09:32:25.481Z,934.41
2019-06-07T09:33:25.418Z,934.46
2019-06-07T09:34:25.376Z,934.43
2019-06-07T09:35:25.359Z,934.39
2019-06-07T09:36:25.282Z,934.45
2019-06-07T09:38:03.736Z,934.43
2019-06-07T09:38:26.685Z,934.45
2019-06-07T09:39:25.129Z,934.53
2019-06-07T09:40:27.770Z,934.50
2019-06-07T09:41:46.350Z,934.60
2019-06-07T09:42:24.989Z,934.58
2019-06-07T09:44:00.880Z,934.57
2019-06-07T09:44:26.528Z,934.60
2019-06-07T09:45:24.843Z,934.61
2019-06-07T09:46:24.786Z,934.62
2019-06-07T09:47:32.251Z,934.64
2019-06-07T09:49:08.972Z,934.66
2019-06-07T09:49:31.905Z,934.67
2019-06-07T09:50:24.571Z,934.66
2019-06-07T09:51:24.535Z,934.67
2019-06-07T09:52:24.472Z,934.73
2019-06-07T09:53:24.448Z,934.72
2019-06-07T09:55:03.288Z,934.71
2019-06-07T09:55:25.346Z,934.72
2019-06-07T09:56:24.295Z,934.73
2019-06-07T09:57:24.224Z,934.73
2019-06-07T09:58:51.010Z,934.76
2019-06-07T09:59:24.136Z,934.79
2019-06-07T10:00:42.005Z,934.77
2019-06-07T10:01:24.037Z,934.80
2019-06-07T10:02:23.992Z,934.83
2019-06-07T10:03:23.927Z,934.83
2019-06-07T10:04:31.035Z,934.83
2019-06-07T10:05:23.836Z,934.90
2019-06-07T10:06:23.795Z,934.89
2019-06-07T10:07:31.361Z,934.91
2019-06-07T10:09:42.329Z,934.88
2019-06-07T10:10:09.393Z,934.93
2019-06-07T10:11:23.554Z,934.97
2019-06-07T10:12:23.492Z,935.01
2019-06-07T10:13:23.432Z,934.97
2019-06-07T10:14:23.398Z,934.96
2019-06-07T10:15:23.347Z,934.97
2019-06-07T10:16:23.300Z,934.98
2019-06-07T10:17:23.247Z,934.97
2019-06-07T10:18:23.194Z,934.94
2019-06-07T10:19:23.145Z,934.95
2019-06-07T10:20:23.102Z,934.98
2019-06-07T10:21:23.074Z,935.02
2019-06-07T10:22:23.008Z,934.99
2019-06-07T10:23:22.941Z,935.03
2019-06-07T10:24:22.885Z,935.04
2019-06-07T10:25:22.852Z,935.07
2019-06-07T10:26:22.784Z,935.14
2019-06-07T10:27:22.773Z,935.21
2019-06-07T10:28:22.690Z,935.21
2019-06-07T10:29:22.639Z,935.23
2019-06-07T10:30:22.594Z,935.22
2019-06-07T10:31:22.551Z,935.28
2019-06-07T10:32:22.510Z,935.31
2019-06-07T10:33:22.458Z,935.29
2019-06-07T10:34:22.385Z,935.28
2019-06-07T10:35:22.350Z,935.27
2019-06-07T10:36:22.295Z,935.31
2019-06-07T10:37:22.259Z,935.28
2019-06-07T10:38:22.206Z,935.28
2019-06-07T10:39:22.154Z,935.34
2019-06-07T10:40:22.120Z,935.35
2019-06-07T10:41:22.052Z,935.36
2019-06-07T10:42:22.006Z,935.31
2019-06-07T10:43:22.160Z,935.34
2019-06-07T10:44:21.926Z,935.30
2019-06-07T10:45:21.885Z,935.36
2019-06-07T10:46:21.820Z,935.38
2019-06-07T10:47:21.800Z,935.38
2019-06-07T10:48:24.794Z,935.37
2019-06-07T10:49:21.893Z,935.39
2019-06-07T10:50:21.654Z,935.45
2019-06-07T10:51:21.615Z,935.42
2019-06-07T10:52:21.566Z,935.48
2019-06-07T10:53:21.538Z,935.48
2019-06-07T10:54:29.696Z,935.53
2019-06-07T10:55:21.613Z,935.48
2019-06-07T10:56:21.381Z,935.50
2019-06-07T10:57:21.335Z,935.48
2019-06-07T10:58:21.280Z,935.52
2019-06-07T10:59:21.244Z,935.48
2019-06-07T11:00:21.211Z,935.52
2019-06-07T11:01:21.373Z,935.53
2019-06-07T11:02:21.130Z,935.53
2019-06-07T11:03:21.084Z,935.54
2019-06-07T11:04:21.027Z,935.51
2019-06-07T11:05:20.992Z,935.54
2019-06-07T11:06:20.932Z,935.52
2019-06-07T11:07:21.130Z,935.55
2019-06-07T11:08:20.860Z,935.56
2019-06-07T11:09:20.817Z,935.56
2019-06-07T11:10:20.778Z,935.55
2019-06-07T11:11:20.762Z,935.56
2019-06-07T11:12:20.699Z,935.53
2019-06-07T11:13:20.856Z,935.58
2019-06-07T11:14:20.607Z,935.54
2019-06-07T11:15:20.554Z,935.52
2019-06-07T11:16:20.510Z,935.53
2019-06-07T11:17:20.495Z,935.50
2019-06-07T11:18:20.454Z,935.48
2019-06-07T11:19:20.598Z,935.54
2019-06-07T11:20:20.366Z,935.50
2019-06-07T11:21:20.305Z,935.48
2019-06-07T11:22:20.268Z,935.50
2019-06-07T11:23:20.237Z,935.51
2019-06-07T11:24:24.606Z,935.47
2019-06-07T11:25:20.361Z,935.45
2019-06-07T11:26:20.111Z,935.49
2019-06-07T11:27:20.084Z,935.45
2019-06-07T11:28:20.035Z,935.51
2019-06-07T11:29:19.995Z,935.48
2019-06-07T11:30:19.985Z,935.49
2019-06-07T11:31:20.106Z,935.48
2019-06-07T11:32:19.858Z,935.53
2019-06-07T11:33:19.811Z,935.53
2019-06-07T11:34:19.763Z,935.56
2019-06-07T11:35:19.713Z,935.53
2019-06-07T11:36:19.668Z,935.58
2019-06-07T11:37:19.828Z,935.55
2019-06-07T11:38:19.592Z,935.58
2019-06-07T11:39:19.560Z,935.61
2019-06-07T11:40:35.733Z,935.62
2019-06-07T11:41:19.449Z,935.61
2019-06-07T11:42:20.192Z,935.65
2019-06-07T11:43:19.562Z,935.67
2019-06-07T11:44:19.319Z,935.64
2019-06-07T11:45:19.277Z,935.70
2019-06-07T11:46:19.237Z,935.78
2019-06-07T11:47:19.193Z,935.76
2019-06-07T11:48:19.173Z,935.76
2019-06-07T11:49:21.717Z,935.76
2019-06-07T11:50:19.070Z,935.81
2019-06-07T11:51:19.014Z,935.78
2019-06-07T11:52:18.978Z,935.83
2019-06-07T11:53:20.016Z,935.85
2019-06-07T11:54:20.323Z,935.82
2019-06-07T11:55:22.540Z,935.85
2019-06-07T11:56:18.782Z,935.83
2019-06-07T11:57:18.742Z,935.84
2019-06-07T11:58:21.746Z,935.83
2019-06-07T11:59:18.656Z,935.79
2019-06-07T12:00:18.645Z,935.81
2019-06-07T12:01:18.752Z,935.85
2019-06-07T12:02:18.508Z,935.87
2019-06-07T12:03:18.460Z,935.86
2019-06-07T12:04:33.712Z,935.88
2019-06-07T12:05:20.219Z,935.88
2019-06-07T12:06:18.340Z,935.92
2019-06-07T12:07:19.960Z,935.89
2019-06-07T12:08:18.273Z,935.88
2019-06-07T12:09:18.776Z,935.92
2019-06-07T12:10:22.416Z,935.91
2019-06-07T12:11:18.512Z,935.93
2019-06-07T12:12:20.566Z,935.92
2019-06-07T12:13:19.009Z,935.93
2019-06-07T12:14:19.243Z,935.95
2019-06-07T12:15:19.288Z,935.92
2019-06-07T12:16:19.272Z,935.92
2019-06-07T12:17:17.820Z,935.97
2019-06-07T12:18:17.783Z,936.02
2019-06-07T12:19:17.768Z,936.00
2019-06-07T12:20:19.539Z,935.99
2019-06-07T12:21:18.115Z,935.98
2019-06-07T12:22:17.919Z,935.99
2019-06-07T12:23:18.128Z,936.00
2019-06-07T12:24:19.451Z,936.04
2019-06-07T12:25:21.507Z,936.00
2019-06-07T12:26:18.623Z,936.07
2019-06-07T12:27:18.653Z,936.05
2019-06-07T12:28:17.311Z,936.06
2019-06-07T12:29:17.280Z,936.07
2019-06-07T12:30:24.478Z,936.04
2019-06-07T12:31:17.239Z,936.05
2019-06-07T12:32:17.515Z,936.07
2019-06-07T12:33:17.737Z,936.05
2019-06-07T12:34:17.468Z,936.07